sensor_id;sensor_type;location;lat;lon;timestamp;temperature;humidity
30300;DHT22;17110;52.602;12.998;2023-01-31T00:00:52;3.00;99.90
30300;DHT22;17110;52.602;12.998;2023-01-31T00:03:18;2.90;99.90
30300;DHT22;17110;52.602;12.998;2023-01-31T00:05:44;3.10;99.90
30300;DHT22;17110;52.602;12.998;2023-01-31T00:08:10;3.10;99.90
30300;DHT22;17110;52.602;12.998;2023-01-31T00:10:37;3.20;99.90
30300;DHT22;17110;52.602;12.998;2023-01-31T00:13:02;3.20;99.90
30300;DHT22;17110;52.602;12.998;2023-01-31T00:15:28;3.10;99.90
30300;DHT22;17110;52.602;12.998;2023-01-31T00:17:54;3.10;99.90
30300;DHT22;17110;52.602;12.998;2023-01-31T00:20:20;3.10;99.90
30300;DHT22;17110;52.602;12.998;2023-01-31T00:22:45;3.10;99.90
30300;DHT22;17110;52.602;12.998;2023-01-31T00:25:11;3.20;99.90
30300;DHT22;17110;52.602;12.998;2023-01-31T00:27:40;3.20;99.90
30300;DHT22;17110;52.602;12.998;2023-01-31T00:30:06;3.20;99.90
30300;DHT22;17110;52.602;12.998;2023-01-31T00:32:32;3.30;99.90
30300;DHT22;17110;52.602;12.998;2023-01-31T00:34:57;3.20;99.90
30300;DHT22;17110;52.602;12.998;2023-01-31T00:37:23;3.10;99.90
30300;DHT22;17110;52.602;12.998;2023-01-31T00:39:49;3.10;99.90
30300;DHT22;17110;52.602;12.998;2023-01-31T00:42:14;3.20;99.90
30300;DHT22;17110;52.602;12.998;2023-01-31T00:44:40;3.30;99.90
30300;DHT22;17110;52.602;12.998;2023-01-31T00:47:06;3.30;99.90
30300;DHT22;17110;52.602;12.998;2023-01-31T00:49:31;3.30;99.90
30300;DHT22;17110;52.602;12.998;2023-01-31T00:51:57;3.30;99.90
30300;DHT22;17110;52.602;12.998;2023-01-31T00:54:23;3.50;99.90
30300;DHT22;17110;52.602;12.998;2023-01-31T00:56:48;3.20;99.90
30300;DHT22;17110;52.602;12.998;2023-01-31T00:59:14;3.30;99.90
30300;DHT22;17110;52.602;12.998;2023-01-31T01:01:40;3.40;99.90
30300;DHT22;17110;52.602;12.998;2023-01-31T01:04:05;3.40;99.90
30300;DHT22;17110;52.602;12.998;2023-01-31T01:06:31;3.30;99.90
30300;DHT22;17110;52.602;12.998;2023-01-31T01:08:57;3.30;99.90
30300;DHT22;17110;52.602;12.998;2023-01-31T01:11:29;3.30;99.90
30300;DHT22;17110;52.602;12.998;2023-01-31T01:13:56;3.40;99.90
30300;DHT22;17110;52.602;12.998;2023-01-31T01:16:29;3.40;99.90
30300;DHT22;17110;52.602;12.998;2023-01-31T01:18:55;3.20;99.90
30300;DHT22;17110;52.602;12.998;2023-01-31T01:21:26;3.30;99.90
30300;DHT22;17110;52.602;12.998;2023-01-31T01:23:55;3.40;99.90
30300;DHT22;17110;52.602;12.998;2023-01-31T01:26:32;3.40;99.90
30300;DHT22;17110;52.602;12.998;2023-01-31T01:29:00;3.60;99.90
30300;DHT22;17110;52.602;12.998;2023-01-31T01:31:26;3.60;99.90
30300;DHT22;17110;52.602;12.998;2023-01-31T01:34:00;3.50;99.90
30300;DHT22;17110;52.602;12.998;2023-01-31T01:36:27;3.50;99.90
30300;DHT22;17110;52.602;12.998;2023-01-31T01:38:53;3.50;99.90
30300;DHT22;17110;52.602;12.998;2023-01-31T01:41:20;3.40;99.90
30300;DHT22;17110;52.602;12.998;2023-01-31T01:43:47;3.30;99.90
30300;DHT22;17110;52.602;12.998;2023-01-31T01:48:59;3.10;99.90
30300;DHT22;17110;52.602;12.998;2023-01-31T01:51:26;3.10;99.90
30300;DHT22;17110;52.602;12.998;2023-01-31T01:53:54;3.20;99.90
30300;DHT22;17110;52.602;12.998;2023-01-31T01:56:25;3.10;99.90
30300;DHT22;17110;52.602;12.998;2023-01-31T01:59:00;3.00;99.90
30300;DHT22;17110;52.602;12.998;2023-01-31T02:01:30;2.80;99.90
30300;DHT22;17110;52.602;12.998;2023-01-31T02:03:56;2.90;99.90
30300;DHT22;17110;52.602;12.998;2023-01-31T02:06:22;2.70;99.90
30300;DHT22;17110;52.602;12.998;2023-01-31T02:08:48;2.70;99.90
30300;DHT22;17110;52.602;12.998;2023-01-31T02:11:29;2.90;99.90
30300;DHT22;17110;52.602;12.998;2023-01-31T02:14:15;3.00;99.90
30300;DHT22;17110;52.602;12.998;2023-01-31T02:16:41;3.00;99.90
30300;DHT22;17110;52.602;12.998;2023-01-31T02:19:34;3.10;99.90
30300;DHT22;17110;52.602;12.998;2023-01-31T02:22:14;2.80;99.90
30300;DHT22;17110;52.602;12.998;2023-01-31T02:35:51;2.70;99.90
30300;DHT22;17110;52.602;12.998;2023-01-31T02:47:11;2.70;99.90
30300;DHT22;17110;52.602;12.998;2023-01-31T02:49:39;2.70;99.90
30300;DHT22;17110;52.602;12.998;2023-01-31T02:58:08;2.50;99.90
30300;DHT22;17110;52.602;12.998;2023-01-31T03:00:38;2.60;99.90
30300;DHT22;17110;52.602;12.998;2023-01-31T03:03:07;2.60;99.90
30300;DHT22;17110;52.602;12.998;2023-01-31T03:05:33;2.70;99.90
30300;DHT22;17110;52.602;12.998;2023-01-31T03:08:00;2.60;99.90
30300;DHT22;17110;52.602;12.998;2023-01-31T03:10:43;2.50;99.90
30300;DHT22;17110;52.602;12.998;2023-01-31T03:13:29;2.50;99.90
30300;DHT22;17110;52.602;12.998;2023-01-31T03:16:05;2.30;99.90
30300;DHT22;17110;52.602;12.998;2023-01-31T03:21:36;2.10;99.90
30300;DHT22;17110;52.602;12.998;2023-01-31T03:24:05;2.20;99.90
30300;DHT22;17110;52.602;12.998;2023-01-31T03:26:32;2.40;99.90
30300;DHT22;17110;52.602;12.998;2023-01-31T03:29:00;2.30;99.90
30300;DHT22;17110;52.602;12.998;2023-01-31T03:31:36;2.30;99.90
30300;DHT22;17110;52.602;12.998;2023-01-31T03:34:05;2.20;99.90
30300;DHT22;17110;52.602;12.998;2023-01-31T03:36:57;2.20;99.90
30300;DHT22;17110;52.602;12.998;2023-01-31T03:39:35;2.30;99.90
30300;DHT22;17110;52.602;12.998;2023-01-31T03:42:06;2.30;99.90
30300;DHT22;17110;52.602;12.998;2023-01-31T03:44:45;2.30;99.90
30300;DHT22;17110;52.602;12.998;2023-01-31T03:47:21;2.20;99.90
30300;DHT22;17110;52.602;12.998;2023-01-31T03:49:49;2.20;99.90
30300;DHT22;17110;52.602;12.998;2023-01-31T03:52:20;2.30;99.90
30300;DHT22;17110;52.602;12.998;2023-01-31T03:54:53;2.30;99.90
30300;DHT22;17110;52.602;12.998;2023-01-31T03:57:23;2.20;99.90
30300;DHT22;17110;52.602;12.998;2023-01-31T03:59:52;2.30;99.90
30300;DHT22;17110;52.602;12.998;2023-01-31T04:02:23;2.20;99.90
30300;DHT22;17110;52.602;12.998;2023-01-31T04:04:54;2.30;99.90
30300;DHT22;17110;52.602;12.998;2023-01-31T04:07:22;2.20;99.90
30300;DHT22;17110;52.602;12.998;2023-01-31T04:09:48;2.20;99.90
30300;DHT22;17110;52.602;12.998;2023-01-31T04:12:14;2.10;99.90
30300;DHT22;17110;52.602;12.998;2023-01-31T04:14:40;2.20;99.90
30300;DHT22;17110;52.602;12.998;2023-01-31T04:17:06;2.10;99.90
30300;DHT22;17110;52.602;12.998;2023-01-31T04:19:31;2.20;99.90
30300;DHT22;17110;52.602;12.998;2023-01-31T04:21:57;2.00;99.90
30300;DHT22;17110;52.602;12.998;2023-01-31T04:24:24;2.10;99.90
30300;DHT22;17110;52.602;12.998;2023-01-31T04:26:49;2.10;99.90
30300;DHT22;17110;52.602;12.998;2023-01-31T04:29:15;2.10;99.90
30300;DHT22;17110;52.602;12.998;2023-01-31T04:31:41;2.00;99.90
30300;DHT22;17110;52.602;12.998;2023-01-31T04:34:07;2.10;99.90
30300;DHT22;17110;52.602;12.998;2023-01-31T04:36:33;2.00;99.90
30300;DHT22;17110;52.602;12.998;2023-01-31T04:38:58;1.90;99.90
30300;DHT22;17110;52.602;12.998;2023-01-31T04:41:27;1.80;99.90
30300;DHT22;17110;52.602;12.998;2023-01-31T04:43:53;1.90;99.90
30300;DHT22;17110;52.602;12.998;2023-01-31T04:46:18;2.20;99.90
30300;DHT22;17110;52.602;12.998;2023-01-31T04:48:44;2.40;99.90
30300;DHT22;17110;52.602;12.998;2023-01-31T04:51:10;2.40;99.90
30300;DHT22;17110;52.602;12.998;2023-01-31T04:53:36;2.20;99.90
30300;DHT22;17110;52.602;12.998;2023-01-31T04:56:02;2.40;99.90
30300;DHT22;17110;52.602;12.998;2023-01-31T04:58:28;2.30;99.90
30300;DHT22;17110;52.602;12.998;2023-01-31T05:00:54;2.30;99.90
30300;DHT22;17110;52.602;12.998;2023-01-31T05:03:20;2.60;99.90
30300;DHT22;17110;52.602;12.998;2023-01-31T05:05:49;2.50;99.90
30300;DHT22;17110;52.602;12.998;2023-01-31T05:08:15;2.80;99.90
30300;DHT22;17110;52.602;12.998;2023-01-31T05:10:42;2.50;99.90
30300;DHT22;17110;52.602;12.998;2023-01-31T05:13:09;2.60;99.90
30300;DHT22;17110;52.602;12.998;2023-01-31T05:15:34;2.90;99.90
30300;DHT22;17110;52.602;12.998;2023-01-31T05:18:00;3.00;99.90
30300;DHT22;17110;52.602;12.998;2023-01-31T05:20:29;3.00;99.90
30300;DHT22;17110;52.602;12.998;2023-01-31T05:22:56;3.10;99.90
30300;DHT22;17110;52.602;12.998;2023-01-31T05:25:23;3.10;99.90
30300;DHT22;17110;52.602;12.998;2023-01-31T05:27:49;3.30;99.90
30300;DHT22;17110;52.602;12.998;2023-01-31T05:30:15;3.30;99.90
30300;DHT22;17110;52.602;12.998;2023-01-31T05:32:41;3.30;99.90
30300;DHT22;17110;52.602;12.998;2023-01-31T05:35:07;3.20;99.90
30300;DHT22;17110;52.602;12.998;2023-01-31T05:37:32;3.30;99.90
30300;DHT22;17110;52.602;12.998;2023-01-31T05:39:58;3.30;99.90
30300;DHT22;17110;52.602;12.998;2023-01-31T05:42:23;3.30;99.90
30300;DHT22;17110;52.602;12.998;2023-01-31T05:44:49;3.40;99.90
30300;DHT22;17110;52.602;12.998;2023-01-31T05:47:15;3.40;99.90
30300;DHT22;17110;52.602;12.998;2023-01-31T05:49:40;3.50;99.90
30300;DHT22;17110;52.602;12.998;2023-01-31T05:52:06;3.40;99.90
30300;DHT22;17110;52.602;12.998;2023-01-31T05:54:32;3.40;99.90
30300;DHT22;17110;52.602;12.998;2023-01-31T05:56:58;3.40;99.90
30300;DHT22;17110;52.602;12.998;2023-01-31T05:59:24;3.40;99.90
30300;DHT22;17110;52.602;12.998;2023-01-31T06:01:50;3.50;99.90
30300;DHT22;17110;52.602;12.998;2023-01-31T06:04:16;3.50;99.90
30300;DHT22;17110;52.602;12.998;2023-01-31T06:06:42;3.50;99.90
30300;DHT22;17110;52.602;12.998;2023-01-31T06:09:09;3.40;99.90
30300;DHT22;17110;52.602;12.998;2023-01-31T06:11:36;3.50;99.90
30300;DHT22;17110;52.602;12.998;2023-01-31T06:14:01;3.60;99.90
30300;DHT22;17110;52.602;12.998;2023-01-31T06:16:27;3.60;99.90
30300;DHT22;17110;52.602;12.998;2023-01-31T06:18:53;3.50;99.90
30300;DHT22;17110;52.602;12.998;2023-01-31T06:21:20;3.50;99.90
30300;DHT22;17110;52.602;12.998;2023-01-31T06:23:46;3.60;99.90
30300;DHT22;17110;52.602;12.998;2023-01-31T06:26:12;3.60;99.90
30300;DHT22;17110;52.602;12.998;2023-01-31T06:28:38;3.60;99.90
30300;DHT22;17110;52.602;12.998;2023-01-31T06:31:08;3.70;99.90
30300;DHT22;17110;52.602;12.998;2023-01-31T06:33:34;3.60;99.90
30300;DHT22;17110;52.602;12.998;2023-01-31T06:36:00;3.70;99.90
30300;DHT22;17110;52.602;12.998;2023-01-31T06:38:27;3.70;99.90
30300;DHT22;17110;52.602;12.998;2023-01-31T06:40:52;3.70;99.90
30300;DHT22;17110;52.602;12.998;2023-01-31T06:43:18;3.70;99.90
30300;DHT22;17110;52.602;12.998;2023-01-31T06:45:44;3.50;99.90
30300;DHT22;17110;52.602;12.998;2023-01-31T06:48:10;4.00;99.90
30300;DHT22;17110;52.602;12.998;2023-01-31T06:50:37;3.80;99.90
30300;DHT22;17110;52.602;12.998;2023-01-31T06:53:03;3.90;99.90
30300;DHT22;17110;52.602;12.998;2023-01-31T06:55:28;3.80;99.90
30300;DHT22;17110;52.602;12.998;2023-01-31T06:57:54;3.80;99.90
30300;DHT22;17110;52.602;12.998;2023-01-31T07:00:21;4.00;99.90
30300;DHT22;17110;52.602;12.998;2023-01-31T07:02:47;3.80;99.90
30300;DHT22;17110;52.602;12.998;2023-01-31T07:05:13;3.90;99.90
30300;DHT22;17110;52.602;12.998;2023-01-31T07:07:39;3.80;99.90
30300;DHT22;17110;52.602;12.998;2023-01-31T07:10:05;3.80;99.90
30300;DHT22;17110;52.602;12.998;2023-01-31T07:12:31;3.80;99.90
30300;DHT22;17110;52.602;12.998;2023-01-31T07:14:56;3.80;99.90
30300;DHT22;17110;52.602;12.998;2023-01-31T07:17:22;3.80;99.90
30300;DHT22;17110;52.602;12.998;2023-01-31T07:19:48;4.10;99.90
30300;DHT22;17110;52.602;12.998;2023-01-31T07:22:13;3.90;99.90
30300;DHT22;17110;52.602;12.998;2023-01-31T07:24:39;3.90;99.90
30300;DHT22;17110;52.602;12.998;2023-01-31T07:27:05;3.80;99.90
30300;DHT22;17110;52.602;12.998;2023-01-31T07:29:30;4.00;99.90
30300;DHT22;17110;52.602;12.998;2023-01-31T07:31:56;3.90;99.90
30300;DHT22;17110;52.602;12.998;2023-01-31T07:34:22;4.00;99.90
30300;DHT22;17110;52.602;12.998;2023-01-31T07:36:51;4.00;99.90
30300;DHT22;17110;52.602;12.998;2023-01-31T07:39:17;4.00;99.90
30300;DHT22;17110;52.602;12.998;2023-01-31T07:41:42;4.20;99.90
30300;DHT22;17110;52.602;12.998;2023-01-31T07:44:08;4.10;99.90
30300;DHT22;17110;52.602;12.998;2023-01-31T07:46:39;4.10;99.90
30300;DHT22;17110;52.602;12.998;2023-01-31T07:49:04;4.10;99.90
30300;DHT22;17110;52.602;12.998;2023-01-31T07:51:30;4.20;99.90
30300;DHT22;17110;52.602;12.998;2023-01-31T07:53:56;4.30;99.90
30300;DHT22;17110;52.602;12.998;2023-01-31T07:56:22;4.30;99.90
30300;DHT22;17110;52.602;12.998;2023-01-31T07:58:49;4.30;99.90
30300;DHT22;17110;52.602;12.998;2023-01-31T08:01:25;4.30;99.90
30300;DHT22;17110;52.602;12.998;2023-01-31T08:04:11;4.30;99.90
30300;DHT22;17110;52.602;12.998;2023-01-31T08:06:38;4.40;99.90
30300;DHT22;17110;52.602;12.998;2023-01-31T08:09:04;4.40;99.90
30300;DHT22;17110;52.602;12.998;2023-01-31T08:11:30;4.20;99.90
30300;DHT22;17110;52.602;12.998;2023-01-31T08:13:56;4.40;99.90
30300;DHT22;17110;52.602;12.998;2023-01-31T08:16:21;4.40;99.90
30300;DHT22;17110;52.602;12.998;2023-01-31T08:18:47;4.40;99.90
30300;DHT22;17110;52.602;12.998;2023-01-31T08:21:14;4.30;99.90
30300;DHT22;17110;52.602;12.998;2023-01-31T08:23:40;4.40;99.90
30300;DHT22;17110;52.602;12.998;2023-01-31T08:26:09;4.40;99.90
30300;DHT22;17110;52.602;12.998;2023-01-31T08:28:37;4.70;99.90
30300;DHT22;17110;52.602;12.998;2023-01-31T08:31:03;4.40;99.90
30300;DHT22;17110;52.602;12.998;2023-01-31T08:33:29;4.40;99.90
30300;DHT22;17110;52.602;12.998;2023-01-31T08:35:55;4.30;99.90
30300;DHT22;17110;52.602;12.998;2023-01-31T08:38:21;4.50;99.90
30300;DHT22;17110;52.602;12.998;2023-01-31T08:40:46;4.50;99.90
30300;DHT22;17110;52.602;12.998;2023-01-31T08:43:12;4.50;99.90
30300;DHT22;17110;52.602;12.998;2023-01-31T08:45:38;4.50;99.90
30300;DHT22;17110;52.602;12.998;2023-01-31T08:48:04;4.40;99.90
30300;DHT22;17110;52.602;12.998;2023-01-31T08:50:31;4.50;99.90
30300;DHT22;17110;52.602;12.998;2023-01-31T08:53:06;4.50;99.90
30300;DHT22;17110;52.602;12.998;2023-01-31T08:55:34;4.50;99.90
30300;DHT22;17110;52.602;12.998;2023-01-31T08:58:00;4.50;99.90
30300;DHT22;17110;52.602;12.998;2023-01-31T09:00:27;4.60;99.90
30300;DHT22;17110;52.602;12.998;2023-01-31T09:02:55;4.70;99.90
30300;DHT22;17110;52.602;12.998;2023-01-31T09:05:21;4.80;99.90
30300;DHT22;17110;52.602;12.998;2023-01-31T09:07:47;4.70;99.90
30300;DHT22;17110;52.602;12.998;2023-01-31T09:10:13;4.60;99.90
30300;DHT22;17110;52.602;12.998;2023-01-31T09:12:38;4.70;99.90
30300;DHT22;17110;52.602;12.998;2023-01-31T09:15:04;4.90;99.90
30300;DHT22;17110;52.602;12.998;2023-01-31T09:17:30;4.80;99.90
30300;DHT22;17110;52.602;12.998;2023-01-31T09:19:57;4.90;99.90
30300;DHT22;17110;52.602;12.998;2023-01-31T09:22:22;4.90;99.90
30300;DHT22;17110;52.602;12.998;2023-01-31T09:24:48;5.00;99.90
30300;DHT22;17110;52.602;12.998;2023-01-31T09:27:14;5.00;99.90
30300;DHT22;17110;52.602;12.998;2023-01-31T09:29:39;5.00;99.90
30300;DHT22;17110;52.602;12.998;2023-01-31T09:32:06;5.00;99.90
30300;DHT22;17110;52.602;12.998;2023-01-31T09:34:32;5.00;99.90
30300;DHT22;17110;52.602;12.998;2023-01-31T09:36:58;5.20;99.90
30300;DHT22;17110;52.602;12.998;2023-01-31T09:39:24;5.20;99.90
30300;DHT22;17110;52.602;12.998;2023-01-31T09:41:53;5.30;99.90
30300;DHT22;17110;52.602;12.998;2023-01-31T09:46:54;5.20;99.90
30300;DHT22;17110;52.602;12.998;2023-01-31T09:49:27;5.20;99.90
30300;DHT22;17110;52.602;12.998;2023-01-31T09:51:59;5.20;99.90
30300;DHT22;17110;52.602;12.998;2023-01-31T09:54:31;5.30;99.90
30300;DHT22;17110;52.602;12.998;2023-01-31T09:59:52;5.20;99.90
30300;DHT22;17110;52.602;12.998;2023-01-31T10:02:41;5.20;99.90
30300;DHT22;17110;52.602;12.998;2023-01-31T10:05:35;5.20;99.90
30300;DHT22;17110;52.602;12.998;2023-01-31T10:08:16;5.10;99.90
30300;DHT22;17110;52.602;12.998;2023-01-31T10:10:59;5.10;99.90
30300;DHT22;17110;52.602;12.998;2023-01-31T10:13:33;5.10;99.90
30300;DHT22;17110;52.602;12.998;2023-01-31T10:18:41;5.10;99.90
30300;DHT22;17110;52.602;12.998;2023-01-31T10:21:15;5.10;99.90
30300;DHT22;17110;52.602;12.998;2023-01-31T10:24:05;4.80;99.90
30300;DHT22;17110;52.602;12.998;2023-01-31T10:26:37;5.30;99.90
30300;DHT22;17110;52.602;12.998;2023-01-31T10:29:22;5.30;99.90
30300;DHT22;17110;52.602;12.998;2023-01-31T10:32:05;5.60;99.90
30300;DHT22;17110;52.602;12.998;2023-01-31T10:34:46;5.80;99.90
30300;DHT22;17110;52.602;12.998;2023-01-31T10:37:26;5.50;99.90
30300;DHT22;17110;52.602;12.998;2023-01-31T10:40:00;5.40;99.90
30300;DHT22;17110;52.602;12.998;2023-01-31T10:42:28;5.40;99.90
30300;DHT22;17110;52.602;12.998;2023-01-31T10:47:53;5.40;99.90
30300;DHT22;17110;52.602;12.998;2023-01-31T10:50:38;5.50;99.90
30300;DHT22;17110;52.602;12.998;2023-01-31T10:58:17;5.50;99.90
30300;DHT22;17110;52.602;12.998;2023-01-31T11:00:44;5.40;99.90
30300;DHT22;17110;52.602;12.998;2023-01-31T11:03:14;5.40;99.90
30300;DHT22;17110;52.602;12.998;2023-01-31T11:05:54;5.40;99.90
30300;DHT22;17110;52.602;12.998;2023-01-31T11:08:47;5.40;99.90
30300;DHT22;17110;52.602;12.998;2023-01-31T11:11:15;5.40;99.90
30300;DHT22;17110;52.602;12.998;2023-01-31T11:16:19;5.20;99.90
30300;DHT22;17110;52.602;12.998;2023-01-31T11:18:47;5.50;99.90
30300;DHT22;17110;52.602;12.998;2023-01-31T11:21:24;5.20;99.90
30300;DHT22;17110;52.602;12.998;2023-01-31T11:23:52;5.30;99.90
30300;DHT22;17110;52.602;12.998;2023-01-31T11:26:33;5.30;99.90
30300;DHT22;17110;52.602;12.998;2023-01-31T11:29:01;5.30;99.90
30300;DHT22;17110;52.602;12.998;2023-01-31T11:31:36;5.30;99.90
30300;DHT22;17110;52.602;12.998;2023-01-31T11:34:05;5.30;99.90
30300;DHT22;17110;52.602;12.998;2023-01-31T11:36:43;5.30;99.90
30300;DHT22;17110;52.602;12.998;2023-01-31T11:39:29;5.30;99.90
30300;DHT22;17110;52.602;12.998;2023-01-31T11:42:15;5.30;99.90
30300;DHT22;17110;52.602;12.998;2023-01-31T11:45:09;5.30;99.90
30300;DHT22;17110;52.602;12.998;2023-01-31T11:50:07;5.40;99.90
30300;DHT22;17110;52.602;12.998;2023-01-31T11:52:43;5.30;99.90
30300;DHT22;17110;52.602;12.998;2023-01-31T11:55:11;5.30;99.90
30300;DHT22;17110;52.602;12.998;2023-01-31T11:57:40;5.30;99.90
30300;DHT22;17110;52.602;12.998;2023-01-31T12:00:31;5.20;99.90
30300;DHT22;17110;52.602;12.998;2023-01-31T12:03:13;5.20;99.90
30300;DHT22;17110;52.602;12.998;2023-01-31T12:05:42;5.30;99.90
30300;DHT22;17110;52.602;12.998;2023-01-31T12:08:29;5.20;99.90
30300;DHT22;17110;52.602;12.998;2023-01-31T12:10:55;5.20;99.90
30300;DHT22;17110;52.602;12.998;2023-01-31T12:13:22;5.30;99.90
30300;DHT22;17110;52.602;12.998;2023-01-31T12:21:13;5.30;99.90
30300;DHT22;17110;52.602;12.998;2023-01-31T12:32:44;5.10;99.90
30300;DHT22;17110;52.602;12.998;2023-01-31T12:38:21;4.90;99.90
30300;DHT22;17110;52.602;12.998;2023-01-31T12:42:13;5.00;99.90
30300;DHT22;17110;52.602;12.998;2023-01-31T12:44:11;4.90;99.90
30300;DHT22;17110;52.602;12.998;2023-01-31T12:52:48;4.80;99.90
30300;DHT22;17110;52.602;12.998;2023-01-31T12:55:51;4.80;99.90
30300;DHT22;17110;52.602;12.998;2023-01-31T13:06:15;4.90;99.90
30300;DHT22;17110;52.602;12.998;2023-01-31T13:08:54;4.90;99.90
30300;DHT22;17110;52.602;12.998;2023-01-31T13:11:32;5.00;99.90
30300;DHT22;17110;52.602;12.998;2023-01-31T13:14:03;5.00;99.90
30300;DHT22;17110;52.602;12.998;2023-01-31T13:16:36;5.00;99.90
30300;DHT22;17110;52.602;12.998;2023-01-31T13:19:06;4.80;99.90
30300;DHT22;17110;52.602;12.998;2023-01-31T13:21:38;4.90;99.90
30300;DHT22;17110;52.602;12.998;2023-01-31T13:24:11;4.90;99.90
30300;DHT22;17110;52.602;12.998;2023-01-31T13:26:43;5.00;99.90
30300;DHT22;17110;52.602;12.998;2023-01-31T13:29:36;5.00;99.90
30300;DHT22;17110;52.602;12.998;2023-01-31T13:32:09;5.10;99.90
30300;DHT22;17110;52.602;12.998;2023-01-31T13:34:51;5.00;99.90
30300;DHT22;17110;52.602;12.998;2023-01-31T13:37:17;5.00;99.90
30300;DHT22;17110;52.602;12.998;2023-01-31T13:39:53;5.00;99.90
30300;DHT22;17110;52.602;12.998;2023-01-31T13:42:20;5.00;99.90
30300;DHT22;17110;52.602;12.998;2023-01-31T13:44:47;5.10;99.90
30300;DHT22;17110;52.602;12.998;2023-01-31T13:47:22;5.10;99.90
30300;DHT22;17110;52.602;12.998;2023-01-31T13:49:56;5.10;99.90
30300;DHT22;17110;52.602;12.998;2023-01-31T13:55:01;4.90;99.90
30300;DHT22;17110;52.602;12.998;2023-01-31T14:03:09;4.90;99.90
30300;DHT22;17110;52.602;12.998;2023-01-31T14:08:55;5.00;99.90
30300;DHT22;17110;52.602;12.998;2023-01-31T14:14:11;4.90;99.90
30300;DHT22;17110;52.602;12.998;2023-01-31T14:16:43;5.00;99.90
30300;DHT22;17110;52.602;12.998;2023-01-31T14:21:57;4.90;99.90
30300;DHT22;17110;52.602;12.998;2023-01-31T14:27:23;4.90;99.90
30300;DHT22;17110;52.602;12.998;2023-01-31T14:30:22;4.90;99.90
30300;DHT22;17110;52.602;12.998;2023-01-31T14:33:00;4.90;99.90
30300;DHT22;17110;52.602;12.998;2023-01-31T14:52:20;5.00;99.90
30300;DHT22;17110;52.602;12.998;2023-01-31T14:57:41;5.00;99.90
30300;DHT22;17110;52.602;12.998;2023-01-31T15:02:47;5.10;99.90
30300;DHT22;17110;52.602;12.998;2023-01-31T15:05:37;5.10;99.90
30300;DHT22;17110;52.602;12.998;2023-01-31T15:11:04;5.00;99.90
30300;DHT22;17110;52.602;12.998;2023-01-31T15:18:43;5.20;99.90
30300;DHT22;17110;52.602;12.998;2023-01-31T15:21:09;5.20;99.90
30300;DHT22;17110;52.602;12.998;2023-01-31T15:23:39;5.20;99.90
30300;DHT22;17110;52.602;12.998;2023-01-31T15:26:08;5.20;99.90
30300;DHT22;17110;52.602;12.998;2023-01-31T15:28:37;5.20;99.90
30300;DHT22;17110;52.602;12.998;2023-01-31T15:31:16;5.20;99.90
30300;DHT22;17110;52.602;12.998;2023-01-31T15:33:49;5.20;99.90
30300;DHT22;17110;52.602;12.998;2023-01-31T15:36:26;5.20;99.90
30300;DHT22;17110;52.602;12.998;2023-01-31T15:38:59;5.20;99.90
30300;DHT22;17110;52.602;12.998;2023-01-31T15:41:38;5.30;99.90
30300;DHT22;17110;52.602;12.998;2023-01-31T15:44:25;5.20;99.90
30300;DHT22;17110;52.602;12.998;2023-01-31T15:46:54;5.30;99.90
30300;DHT22;17110;52.602;12.998;2023-01-31T15:49:29;5.20;99.90
30300;DHT22;17110;52.602;12.998;2023-01-31T15:52:17;5.20;99.90
30300;DHT22;17110;52.602;12.998;2023-01-31T15:54:54;5.20;99.90
30300;DHT22;17110;52.602;12.998;2023-01-31T15:57:31;5.20;99.90
30300;DHT22;17110;52.602;12.998;2023-01-31T15:59:59;5.30;99.90
30300;DHT22;17110;52.602;12.998;2023-01-31T16:02:27;5.30;99.90
30300;DHT22;17110;52.602;12.998;2023-01-31T16:04:54;5.30;99.90
30300;DHT22;17110;52.602;12.998;2023-01-31T16:07:21;5.40;99.90
30300;DHT22;17110;52.602;12.998;2023-01-31T16:09:48;5.40;99.90
30300;DHT22;17110;52.602;12.998;2023-01-31T16:12:16;5.50;99.90
30300;DHT22;17110;52.602;12.998;2023-01-31T16:14:45;5.50;99.90
30300;DHT22;17110;52.602;12.998;2023-01-31T16:17:12;5.60;99.90
30300;DHT22;17110;52.602;12.998;2023-01-31T16:19:38;5.70;99.90
30300;DHT22;17110;52.602;12.998;2023-01-31T16:22:24;5.70;99.90
30300;DHT22;17110;52.602;12.998;2023-01-31T16:25:01;5.70;99.90
30300;DHT22;17110;52.602;12.998;2023-01-31T16:27:31;5.70;99.90
30300;DHT22;17110;52.602;12.998;2023-01-31T16:29:58;5.80;99.90
30300;DHT22;17110;52.602;12.998;2023-01-31T16:32:26;5.80;99.90
30300;DHT22;17110;52.602;12.998;2023-01-31T16:34:58;5.90;99.90
30300;DHT22;17110;52.602;12.998;2023-01-31T16:37:39;5.80;99.90
30300;DHT22;17110;52.602;12.998;2023-01-31T16:42:41;5.90;99.90
30300;DHT22;17110;52.602;12.998;2023-01-31T16:45:30;5.90;99.90
30300;DHT22;17110;52.602;12.998;2023-01-31T16:50:41;5.90;99.90
30300;DHT22;17110;52.602;12.998;2023-01-31T16:53:24;5.90;99.90
30300;DHT22;17110;52.602;12.998;2023-01-31T16:58:44;6.00;99.90
30300;DHT22;17110;52.602;12.998;2023-01-31T17:01:12;6.00;99.90
30300;DHT22;17110;52.602;12.998;2023-01-31T17:03:38;6.00;99.90
30300;DHT22;17110;52.602;12.998;2023-01-31T17:06:04;5.90;99.90
30300;DHT22;17110;52.602;12.998;2023-01-31T17:08:40;6.00;99.90
30300;DHT22;17110;52.602;12.998;2023-01-31T17:11:10;5.90;99.90
30300;DHT22;17110;52.602;12.998;2023-01-31T17:13:36;6.00;99.90
30300;DHT22;17110;52.602;12.998;2023-01-31T17:16:15;6.00;99.90
30300;DHT22;17110;52.602;12.998;2023-01-31T17:18:51;6.00;99.90
30300;DHT22;17110;52.602;12.998;2023-01-31T17:21:18;6.10;99.90
30300;DHT22;17110;52.602;12.998;2023-01-31T17:23:44;6.10;99.90
30300;DHT22;17110;52.602;12.998;2023-01-31T17:26:21;6.10;99.90
30300;DHT22;17110;52.602;12.998;2023-01-31T17:28:47;6.10;99.90
30300;DHT22;17110;52.602;12.998;2023-01-31T17:31:21;6.10;99.90
30300;DHT22;17110;52.602;12.998;2023-01-31T17:33:48;6.10;99.90
30300;DHT22;17110;52.602;12.998;2023-01-31T17:36:15;6.10;99.90
30300;DHT22;17110;52.602;12.998;2023-01-31T17:38:42;6.20;99.90
30300;DHT22;17110;52.602;12.998;2023-01-31T17:41:12;6.10;99.90
30300;DHT22;17110;52.602;12.998;2023-01-31T17:43:39;6.20;99.90
30300;DHT22;17110;52.602;12.998;2023-01-31T17:46:05;6.20;99.90
30300;DHT22;17110;52.602;12.998;2023-01-31T17:48:31;6.20;99.90
30300;DHT22;17110;52.602;12.998;2023-01-31T17:50:56;6.10;99.90
30300;DHT22;17110;52.602;12.998;2023-01-31T17:53:22;6.20;99.90
30300;DHT22;17110;52.602;12.998;2023-01-31T17:55:48;6.20;99.90
30300;DHT22;17110;52.602;12.998;2023-01-31T17:58:15;6.10;99.90
30300;DHT22;17110;52.602;12.998;2023-01-31T18:00:43;6.20;99.90
30300;DHT22;17110;52.602;12.998;2023-01-31T18:03:18;6.20;99.90
30300;DHT22;17110;52.602;12.998;2023-01-31T18:05:45;6.20;99.90
30300;DHT22;17110;52.602;12.998;2023-01-31T18:08:11;6.10;99.90
30300;DHT22;17110;52.602;12.998;2023-01-31T18:10:37;6.10;99.90